sensor_id;sensor_type;location;lat;lon;timestamp;pressure;altitude;pressure_sealevel;temperature;humidity
75146;BME280;63641;46.526;24.612;2023-05-07T00:00:57;97360.88;;;14.58;50.68
75146;BME280;63641;46.526;24.612;2023-05-07T00:03:26;97362.72;;;14.62;50.87
75146;BME280;63641;46.526;24.612;2023-05-07T00:05:53;97367.03;;;14.63;50.89
75146;BME280;63641;46.526;24.612;2023-05-07T00:08:20;97364.94;;;14.60;50.90
75146;BME280;63641;46.526;24.612;2023-05-07T00:10:51;97362.72;;;14.62;50.98
75146;BME280;63641;46.526;24.612;2023-05-07T00:13:17;97364.94;;;14.60;50.97
75146;BME280;63641;46.526;24.612;2023-05-07T00:15:44;97364.13;;;14.60;51.48
75146;BME280;63641;46.526;24.612;2023-05-07T00:18:11;97365.53;;;14.57;51.44
75146;BME280;63641;46.526;24.612;2023-05-07T00:20:37;97364.53;;;14.53;51.10
75146;BME280;63641;46.526;24.612;2023-05-07T00:23:04;97351.25;;;14.52;51.12
75146;BME280;63641;46.526;24.612;2023-05-07T00:25:31;97355.25;;;14.54;51.16
75146;BME280;63641;46.526;24.612;2023-05-07T00:27:58;97361.22;;;14.56;50.99
75146;BME280;63641;46.526;24.612;2023-05-07T00:30:30;97352.03;;;14.52;50.92
75146;BME280;63641;46.526;24.612;2023-05-07T00:32:56;97358.81;;;14.55;51.01
75146;BME280;63641;46.526;24.612;2023-05-07T00:35:23;97352.84;;;14.53;51.10
75146;BME280;63641;46.526;24.612;2023-05-07T00:37:50;97357.97;;;14.54;50.85
75146;BME280;63641;46.526;24.612;2023-05-07T00:40:17;97350.44;;;14.51;50.84
75146;BME280;63641;46.526;24.612;2023-05-07T00:42:43;97345.78;;;14.52;50.98
75146;BME280;63641;46.526;24.612;2023-05-07T00:45:13;97351.25;;;14.52;50.98
75146;BME280;63641;46.526;24.612;2023-05-07T00:47:41;97355.34;;;14.49;51.17
75146;BME280;63641;46.526;24.612;2023-05-07T00:50:08;97346.19;;;14.45;51.52
75146;BME280;63641;46.526;24.612;2023-05-07T00:52:37;97351.09;;;14.43;51.41
75146;BME280;63641;46.526;24.612;2023-05-07T00:55:05;97352.09;;;14.47;51.51
75146;BME280;63641;46.526;24.612;2023-05-07T00:57:40;97347.78;;;14.46;51.56
75146;BME280;63641;46.526;24.612;2023-05-07T01:00:08;97358.66;;;14.46;51.80
75146;BME280;63641;46.526;24.612;2023-05-07T01:02:36;97350.31;;;14.42;51.82
75146;BME280;63641;46.526;24.612;2023-05-07T01:05:05;97354.16;;;14.41;51.99
75146;BME280;63641;46.526;24.612;2023-05-07T01:07:33;97351.22;;;14.38;52.07
75146;BME280;63641;46.526;24.612;2023-05-07T01:10:02;97352.34;;;14.37;51.87
75146;BME280;63641;46.526;24.612;2023-05-07T01:12:30;97356.88;;;14.41;51.77
75146;BME280;63641;46.526;24.612;2023-05-07T01:14:57;97347.00;;;14.32;52.11
75146;BME280;63641;46.526;24.612;2023-05-07T01:17:24;97357.28;;;14.35;52.18
75146;BME280;63641;46.526;24.612;2023-05-07T01:19:51;97343.00;;;14.29;52.39
75146;BME280;63641;46.526;24.612;2023-05-07T01:22:33;97351.94;;;14.30;52.29
75146;BME280;63641;46.526;24.612;2023-05-07T01:25:00;97349.53;;;14.28;52.25
75146;BME280;63641;46.526;24.612;2023-05-07T01:27:28;97354.47;;;14.26;52.12
75146;BME280;63641;46.526;24.612;2023-05-07T01:29:55;97355.28;;;14.26;52.27
75146;BME280;63641;46.526;24.612;2023-05-07T01:32:28;97350.44;;;14.23;52.29
75146;BME280;63641;46.526;24.612;2023-05-07T01:34:57;97351.56;;;14.22;52.21
75146;BME280;63641;46.526;24.612;2023-05-07T01:37:25;97352.69;;;14.21;52.38
75146;BME280;63641;46.526;24.612;2023-05-07T01:39:52;97349.13;;;14.21;52.21
75146;BME280;63641;46.526;24.612;2023-05-07T01:42:21;97347.84;;;14.18;52.24
75146;BME280;63641;46.526;24.612;2023-05-07T01:44:48;97352.28;;;14.14;52.33
75146;BME280;63641;46.526;24.612;2023-05-07T01:47:14;97358.19;;;14.16;52.48
75146;BME280;63641;46.526;24.612;2023-05-07T01:49:42;97347.44;;;14.11;52.46
75146;BME280;63641;46.526;24.612;2023-05-07T01:52:10;97350.03;;;14.16;52.34
75146;BME280;63641;46.526;24.612;2023-05-07T01:54:37;97345.19;;;14.13;52.53
75146;BME280;63641;46.526;24.612;2023-05-07T01:57:04;97349.44;;;14.19;52.64
75146;BME280;63641;46.526;24.612;2023-05-07T01:59:31;97351.56;;;14.22;52.86
75146;BME280;63641;46.526;24.612;2023-05-07T02:01:58;97351.03;;;14.20;52.85
75146;BME280;63641;46.526;24.612;2023-05-07T02:04:25;97347.22;;;14.21;53.01
75146;BME280;63641;46.526;24.612;2023-05-07T02:06:52;97327.78;;;14.14;52.77
75146;BME280;63641;46.526;24.612;2023-05-07T02:09:19;97345.00;;;14.23;52.78
75146;BME280;63641;46.526;24.612;2023-05-07T02:11:46;97332.09;;;14.15;52.97
75146;BME280;63641;46.526;24.612;2023-05-07T02:14:13;97324.75;;;14.16;52.69
75146;BME280;63641;46.526;24.612;2023-05-07T02:16:39;97325.28;;;14.04;52.90
75146;BME280;63641;46.526;24.612;2023-05-07T02:19:06;97340.47;;;14.05;53.03
75146;BME280;63641;46.526;24.612;2023-05-07T02:21:33;97330.19;;;14.02;53.09
75146;BME280;63641;46.526;24.612;2023-05-07T02:23:59;97344.81;;;14.06;53.03
75146;BME280;63641;46.526;24.612;2023-05-07T02:26:26;97326.66;;;14.01;53.32
75146;BME280;63641;46.526;24.612;2023-05-07T02:28:53;97332.22;;;13.96;53.40
75146;BME280;63641;46.526;24.612;2023-05-07T02:31:20;97336.44;;;14.02;53.36
75146;BME280;63641;46.526;24.612;2023-05-07T02:33:47;97330.31;;;13.97;53.49
75146;BME280;63641;46.526;24.612;2023-05-07T02:36:13;97332.22;;;13.96;53.12
75146;BME280;63641;46.526;24.612;2023-05-07T02:38:40;97330.72;;;13.90;53.48
75146;BME280;63641;46.526;24.612;2023-05-07T02:41:07;97337.47;;;13.93;53.67
75146;BME280;63641;46.526;24.612;2023-05-07T02:43:34;97334.53;;;13.89;53.53
75146;BME280;63641;46.526;24.612;2023-05-07T02:46:05;97332.94;;;13.88;53.56
75146;BME280;63641;46.526;24.612;2023-05-07T02:48:32;97326.25;;;13.81;53.58
75146;BME280;63641;46.526;24.612;2023-05-07T02:50:59;97329.50;;;13.83;53.72
75146;BME280;63641;46.526;24.612;2023-05-07T02:53:27;97332.53;;;13.81;53.70
75146;BME280;63641;46.526;24.612;2023-05-07T02:55:57;97339.84;;;13.81;53.79
75146;BME280;63641;46.526;24.612;2023-05-07T02:58:25;97340.69;;;13.81;53.76
75146;BME280;63641;46.526;24.612;2023-05-07T03:00:52;97353.19;;;13.82;54.21
75146;BME280;63641;46.526;24.612;2023-05-07T03:03:21;97349.66;;;13.82;54.22
75146;BME280;63641;46.526;24.612;2023-05-07T03:05:48;97346.72;;;13.78;54.61
75146;BME280;63641;46.526;24.612;2023-05-07T03:08:14;97345.22;;;13.72;54.79
75146;BME280;63641;46.526;24.612;2023-05-07T03:10:42;97348.91;;;13.62;54.90
75146;BME280;63641;46.526;24.612;2023-05-07T03:13:08;97354.66;;;13.61;55.01
75146;BME280;63641;46.526;24.612;2023-05-07T03:15:35;97362.72;;;13.52;55.51
75146;BME280;63641;46.526;24.612;2023-05-07T03:18:03;97353.72;;;13.38;55.80
75146;BME280;63641;46.526;24.612;2023-05-07T03:20:30;97361.06;;;13.37;55.92
75146;BME280;63641;46.526;24.612;2023-05-07T03:22:56;97361.44;;;13.31;56.12
75146;BME280;63641;46.526;24.612;2023-05-07T03:25:24;97357.53;;;13.18;56.65
75146;BME280;63641;46.526;24.612;2023-05-07T03:27:51;97365.19;;;13.16;56.67
75146;BME280;63641;46.526;24.612;2023-05-07T03:30:18;97368.94;;;13.20;56.84
75146;BME280;63641;46.526;24.612;2023-05-07T03:32:45;97381.72;;;13.19;56.78
75146;BME280;63641;46.526;24.612;2023-05-07T03:35:12;97376.88;;;13.16;56.84
75146;BME280;63641;46.526;24.612;2023-05-07T03:37:39;97384.91;;;13.21;56.95
75146;BME280;63641;46.526;24.612;2023-05-07T03:40:06;97380.38;;;13.17;57.10
75146;BME280;63641;46.526;24.612;2023-05-07T03:42:34;97378.47;;;13.17;57.26
75146;BME280;63641;46.526;24.612;2023-05-07T03:45:01;97387.72;;;13.16;57.49
75146;BME280;63641;46.526;24.612;2023-05-07T03:47:29;97383.41;;;13.15;57.60
75146;BME280;63641;46.526;24.612;2023-05-07T03:49:55;97380.09;;;13.18;57.49
75146;BME280;63641;46.526;24.612;2023-05-07T03:52:22;97384.91;;;13.21;57.70
75146;BME280;63641;46.526;24.612;2023-05-07T03:54:53;97377.06;;;13.20;57.74
75146;BME280;63641;46.526;24.612;2023-05-07T03:57:20;97374.66;;;13.18;57.65
75146;BME280;63641;46.526;24.612;2023-05-07T03:59:46;97379.47;;;13.21;57.45
75146;BME280;63641;46.526;24.612;2023-05-07T04:02:14;97387.06;;;13.24;57.28
75146;BME280;63641;46.526;24.612;2023-05-07T04:04:40;97389.94;;;13.33;57.06
75146;BME280;63641;46.526;24.612;2023-05-07T04:07:07;97383.63;;;13.38;57.06
75146;BME280;63641;46.526;24.612;2023-05-07T04:09:34;97387.94;;;13.39;56.97
75146;BME280;63641;46.526;24.612;2023-05-07T04:12:01;97389.53;;;13.40;56.97
75146;BME280;63641;46.526;24.612;2023-05-07T04:14:27;97388.25;;;13.37;57.37
75146;BME280;63641;46.526;24.612;2023-05-07T04:16:55;97387.34;;;13.42;57.49
75146;BME280;63641;46.526;24.612;2023-05-07T04:19:22;97384.41;;;13.38;57.78
75146;BME280;63641;46.526;24.612;2023-05-07T04:21:48;97385.63;;;13.46;57.98
75146;BME280;63641;46.526;24.612;2023-05-07T04:24:15;97395.50;;;13.42;58.08
75146;BME280;63641;46.526;24.612;2023-05-07T04:26:42;97388.88;;;13.48;58.14
75146;BME280;63641;46.526;24.612;2023-05-07T04:29:09;97396.00;;;13.44;58.18
75146;BME280;63641;46.526;24.612;2023-05-07T04:31:36;97388.88;;;13.48;58.18
75146;BME280;63641;46.526;24.612;2023-05-07T04:34:03;97398.25;;;13.56;58.48
75146;BME280;63641;46.526;24.612;2023-05-07T04:36:30;97398.75;;;13.58;58.86
75146;BME280;63641;46.526;24.612;2023-05-07T04:38:57;97392.50;;;13.57;58.91
75146;BME280;63641;46.526;24.612;2023-05-07T04:41:24;97391.13;;;13.60;59.24
75146;BME280;63641;46.526;24.612;2023-05-07T04:43:51;97395.13;;;13.62;59.11
75146;BME280;63641;46.526;24.612;2023-05-07T04:46:18;97395.84;;;13.68;59.37
75146;BME280;63641;46.526;24.612;2023-05-07T04:48:45;97397.66;;;13.72;59.25
75146;BME280;63641;46.526;24.612;2023-05-07T04:51:11;97414.94;;;13.82;59.41
75146;BME280;63641;46.526;24.612;2023-05-07T04:53:39;97400.22;;;13.83;59.18
75146;BME280;63641;46.526;24.612;2023-05-07T04:56:06;97403.88;;;13.92;59.41
75146;BME280;63641;46.526;24.612;2023-05-07T04:58:32;97408.59;;;14.00;59.66
75146;BME280;63641;46.526;24.612;2023-05-07T05:00:59;97403.06;;;14.05;59.63
75146;BME280;63641;46.526;24.612;2023-05-07T05:03:27;97400.25;;;14.10;59.43
75146;BME280;63641;46.526;24.612;2023-05-07T05:05:53;97406.38;;;14.16;59.25
75146;BME280;63641;46.526;24.612;2023-05-07T05:08:20;97410.22;;;14.29;58.63
75146;BME280;63641;46.526;24.612;2023-05-07T05:10:50;97416.56;;;14.38;58.39
75146;BME280;63641;46.526;24.612;2023-05-07T05:13:17;97413.91;;;14.46;57.89
75146;BME280;63641;46.526;24.612;2023-05-07T05:15:44;97411.94;;;14.52;57.48
75146;BME280;63641;46.526;24.612;2023-05-07T05:18:12;97414.16;;;14.64;57.01
75146;BME280;63641;46.526;24.612;2023-05-07T05:20:38;97409.41;;;14.69;57.15
75146;BME280;63641;46.526;24.612;2023-05-07T05:23:07;97412.19;;;14.78;56.73
75146;BME280;63641;46.526;24.612;2023-05-07T05:25:34;97414.19;;;14.86;56.63
75146;BME280;63641;46.526;24.612;2023-05-07T05:28:01;97411.84;;;14.93;55.89
75146;BME280;63641;46.526;24.612;2023-05-07T05:30:27;97416.88;;;15.00;55.61
75146;BME280;63641;46.526;24.612;2023-05-07T05:32:54;97414.53;;;15.07;55.46
75146;BME280;63641;46.526;24.612;2023-05-07T05:35:21;97416.84;;;15.14;55.02
75146;BME280;63641;46.526;24.612;2023-05-07T05:37:48;97420.84;;;15.16;54.96
75146;BME280;63641;46.526;24.612;2023-05-07T05:40:15;97420.38;;;15.14;55.07
75146;BME280;63641;46.526;24.612;2023-05-07T05:42:42;97431.75;;;15.16;54.76
75146;BME280;63641;46.526;24.612;2023-05-07T05:45:09;97427.56;;;15.10;54.76
75146;BME280;63641;46.526;24.612;2023-05-07T05:47:35;97434.63;;;15.11;55.10
75146;BME280;63641;46.526;24.612;2023-05-07T05:50:02;97427.03;;;15.08;55.25
75146;BME280;63641;46.526;24.612;2023-05-07T05:52:29;97419.88;;;15.12;55.09
75146;BME280;63641;46.526;24.612;2023-05-07T05:54:56;97420.56;;;15.18;54.96
75146;BME280;63641;46.526;24.612;2023-05-07T05:57:22;97429.41;;;15.23;54.69
75146;BME280;63641;46.526;24.612;2023-05-07T05:59:51;97420.25;;;15.19;54.90
75146;BME280;63641;46.526;24.612;2023-05-07T06:02:18;97437.31;;;15.25;55.39
75146;BME280;63641;46.526;24.612;2023-05-07T06:04:45;97433.44;;;15.26;55.69
75146;BME280;63641;46.526;24.612;2023-05-07T06:07:12;97426.69;;;15.23;56.16
75146;BME280;63641;46.526;24.612;2023-05-07T06:09:39;97426.22;;;15.21;56.37
75146;BME280;63641;46.526;24.612;2023-05-07T06:12:05;97434.19;;;15.18;56.54
75146;BME280;63641;46.526;24.612;2023-05-07T06:14:32;97443.97;;;15.19;56.70
75146;BME280;63641;46.526;24.612;2023-05-07T06:17:00;97441.84;;;15.16;56.65
75146;BME280;63641;46.526;24.612;2023-05-07T06:19:27;97453.56;;;15.16;57.09
75146;BME280;63641;46.526;24.612;2023-05-07T06:21:54;97453.16;;;15.23;56.96
75146;BME280;63641;46.526;24.612;2023-05-07T06:24:23;97454.13;;;15.27;56.58
75146;BME280;63641;46.526;24.612;2023-05-07T06:26:50;97455.97;;;15.32;56.45
75146;BME280;63641;46.526;24.612;2023-05-07T06:29:17;97431.53;;;15.27;56.43
75146;BME280;63641;46.526;24.612;2023-05-07T06:31:44;97446.34;;;15.34;55.88
75146;BME280;63641;46.526;24.612;2023-05-07T06:34:11;97435.25;;;15.31;56.01
75146;BME280;63641;46.526;24.612;2023-05-07T06:36:41;97429.31;;;15.29;55.44
75146;BME280;63641;46.526;24.612;2023-05-07T06:39:07;97440.88;;;15.34;55.39
75146;BME280;63641;46.526;24.612;2023-05-07T06:41:34;97440.88;;;15.34;55.52
75146;BME280;63641;46.526;24.612;2023-05-07T06:44:05;97440.59;;;15.36;55.54
75146;BME280;63641;46.526;24.612;2023-05-07T06:46:31;97424.72;;;15.38;55.62
75146;BME280;63641;46.526;24.612;2023-05-07T06:48:58;97440.66;;;15.67;55.39
75146;BME280;63641;46.526;24.612;2023-05-07T06:51:25;97436.13;;;15.85;54.92
75146;BME280;63641;46.526;24.612;2023-05-07T06:53:52;97438.97;;;16.11;54.58
75146;BME280;63641;46.526;24.612;2023-05-07T06:56:18;97442.78;;;16.41;54.05
75146;BME280;63641;46.526;24.612;2023-05-07T06:58:45;97439.84;;;16.69;53.37
75146;BME280;63641;46.526;24.612;2023-05-07T07:01:12;97433.94;;;16.93;52.30
75146;BME280;63641;46.526;24.612;2023-05-07T07:03:38;97434.59;;;16.98;51.76
75146;BME280;63641;46.526;24.612;2023-05-07T07:06:05;97430.56;;;17.04;52.15
75146;BME280;63641;46.526;24.612;2023-05-07T07:08:32;97451.81;;;17.25;52.04
75146;BME280;63641;46.526;24.612;2023-05-07T07:10:59;97450.38;;;17.45;52.01
75146;BME280;63641;46.526;24.612;2023-05-07T07:13:26;97444.09;;;17.53;51.77
75146;BME280;63641;46.526;24.612;2023-05-07T07:15:53;97453.59;;;17.55;51.35
75146;BME280;63641;46.526;24.612;2023-05-07T07:18:20;97449.91;;;17.60;51.34
75146;BME280;63641;46.526;24.612;2023-05-07T07:20:50;97446.66;;;17.58;50.68
75146;BME280;63641;46.526;24.612;2023-05-07T07:23:17;97446.81;;;17.61;50.69
75146;BME280;63641;46.526;24.612;2023-05-07T07:25:43;97447.94;;;17.69;50.55
75146;BME280;63641;46.526;24.612;2023-05-07T07:28:11;97458.09;;;17.86;50.32
75146;BME280;63641;46.526;24.612;2023-05-07T07:30:38;97459.50;;;18.01;50.37
75146;BME280;63641;46.526;24.612;2023-05-07T07:33:05;97459.44;;;18.18;50.29
75146;BME280;63641;46.526;24.612;2023-05-07T07:35:32;97448.63;;;18.30;49.73
75146;BME280;63641;46.526;24.612;2023-05-07T07:37:59;97462.06;;;18.44;49.64
75146;BME280;63641;46.526;24.612;2023-05-07T07:40:26;97462.84;;;18.53;49.24
75146;BME280;63641;46.526;24.612;2023-05-07T07:42:53;97469.72;;;18.68;48.82
75146;BME280;63641;46.526;24.612;2023-05-07T07:45:20;97476.78;;;18.78;48.49
75146;BME280;63641;46.526;24.612;2023-05-07T07:47:47;97479.00;;;18.85;48.32
75146;BME280;63641;46.526;24.612;2023-05-07T07:50:14;97482.81;;;18.92;48.21
75146;BME280;63641;46.526;24.612;2023-05-07T07:53:01;97482.16;;;18.95;47.95
75146;BME280;63641;46.526;24.612;2023-05-07T07:55:28;97468.00;;;18.93;47.85
75146;BME280;63641;46.526;24.612;2023-05-07T07:57:54;97471.47;;;19.02;47.36
75146;BME280;63641;46.526;24.612;2023-05-07T08:00:21;97463.59;;;19.01;47.20
75146;BME280;63641;46.526;24.612;2023-05-07T08:02:48;97480.13;;;19.13;47.21
75146;BME280;63641;46.526;24.612;2023-05-07T08:05:15;97482.78;;;19.22;47.24
75146;BME280;63641;46.526;24.612;2023-05-07T08:07:42;97467.59;;;19.24;47.03
75146;BME280;63641;46.526;24.612;2023-05-07T08:10:09;97473.38;;;19.31;46.83
75146;BME280;63641;46.526;24.612;2023-05-07T08:12:36;97464.25;;;19.40;46.65
75146;BME280;63641;46.526;24.612;2023-05-07T08:15:03;97473.22;;;19.49;46.35
75146;BME280;63641;46.526;24.612;2023-05-07T08:17:30;97472.31;;;19.45;46.02
75146;BME280;63641;46.526;24.612;2023-05-07T08:19:57;97463.47;;;19.39;46.65
75146;BME280;63641;46.526;24.612;2023-05-07T08:22:23;97463.19;;;19.32;46.86
75146;BME280;63641;46.526;24.612;2023-05-07T08:24:50;97461.81;;;19.26;47.29
75146;BME280;63641;46.526;24.612;2023-05-07T08:27:18;97462.47;;;19.23;47.63
75146;BME280;63641;46.526;24.612;2023-05-07T08:29:44;97461.06;;;19.17;47.85
75146;BME280;63641;46.526;24.612;2023-05-07T08:32:14;97455.22;;;19.18;48.10
75146;BME280;63641;46.526;24.612;2023-05-07T08:34:41;97456.31;;;19.26;47.95
75146;BME280;63641;46.526;24.612;2023-05-07T08:37:07;97462.91;;;19.25;48.10
75146;BME280;63641;46.526;24.612;2023-05-07T08:39:34;97466.66;;;19.20;48.60
75146;BME280;63641;46.526;24.612;2023-05-07T08:42:02;97467.47;;;19.21;48.50
75146;BME280;63641;46.526;24.612;2023-05-07T08:44:34;97461.53;;;19.19;48.55
75146;BME280;63641;46.526;24.612;2023-05-07T08:47:06;97450.94;;;19.09;48.44
75146;BME280;63641;46.526;24.612;2023-05-07T08:49:33;97467.94;;;19.23;48.51
75146;BME280;63641;46.526;24.612;2023-05-07T08:52:01;97467.28;;;19.26;48.34
75146;BME280;63641;46.526;24.612;2023-05-07T08:54:28;97471.63;;;19.27;48.26
75146;BME280;63641;46.526;24.612;2023-05-07T08:56:55;97479.06;;;19.26;48.42
75146;BME280;63641;46.526;24.612;2023-05-07T08:59:22;97468.88;;;19.27;48.60
75146;BME280;63641;46.526;24.612;2023-05-07T09:01:49;97470.69;;;19.23;48.47
75146;BME280;63641;46.526;24.612;2023-05-07T09:04:16;97470.22;;;19.21;48.57
75146;BME280;63641;46.526;24.612;2023-05-07T09:06:43;97468.00;;;19.14;48.53
75146;BME280;63641;46.526;24.612;2023-05-07T09:09:14;97469.75;;;19.19;48.85
75146;BME280;63641;46.526;24.612;2023-05-07T09:11:43;97479.25;;;19.21;48.75
75146;BME280;63641;46.526;24.612;2023-05-07T09:14:10;97479.09;;;19.18;48.96
75146;BME280;63641;46.526;24.612;2023-05-07T09:16:37;97475.91;;;19.16;49.26
75146;BME280;63641;46.526;24.612;2023-05-07T09:19:04;97477.06;;;19.15;48.89
75146;BME280;63641;46.526;24.612;2023-05-07T09:21:31;97471.75;;;19.10;49.29
75146;BME280;63641;46.526;24.612;2023-05-07T09:23:58;97468.56;;;19.08;49.03
75146;BME280;63641;46.526;24.612;2023-05-07T09:26:24;97473.16;;;19.16;49.07
75146;BME280;63641;46.526;24.612;2023-05-07T09:28:51;97478.03;;;19.10;48.54
75146;BME280;63641;46.526;24.612;2023-05-07T09:31:18;97468.44;;;18.95;48.50
75146;BME280;63641;46.526;24.612;2023-05-07T09:33:47;97481.69;;;18.93;48.31
75146;BME280;63641;46.526;24.612;2023-05-07T09:36:14;97469.31;;;18.87;48.27
75146;BME280;63641;46.526;24.612;2023-05-07T09:38:41;97480.28;;;18.87;48.49
75146;BME280;63641;46.526;24.612;2023-05-07T09:41:10;97485.41;;;18.89;48.87
75146;BME280;63641;46.526;24.612;2023-05-07T09:43:39;97491.38;;;18.91;48.73
75146;BME280;63641;46.526;24.612;2023-05-07T09:46:10;97476.72;;;18.87;48.57
75146;BME280;63641;46.526;24.612;2023-05-07T09:48:43;97487.63;;;18.95;48.42
75146;BME280;63641;46.526;24.612;2023-05-07T09:51:41;97480.69;;;18.98;48.25
75146;BME280;63641;46.526;24.612;2023-05-07T09:54:10;97476.72;;;18.87;48.85
75146;BME280;63641;46.526;24.612;2023-05-07T09:56:37;97478.25;;;18.75;49.23
75146;BME280;63641;46.526;24.612;2023-05-07T09:59:10;97478.25;;;18.67;49.09
75146;BME280;63641;46.526;24.612;2023-05-07T10:01:40;97480.25;;;18.57;49.57
75146;BME280;63641;46.526;24.612;2023-05-07T10:04:08;97478.94;;;18.55;49.75
75146;BME280;63641;46.526;24.612;2023-05-07T10:06:35;97490.72;;;18.55;49.86
75146;BME280;63641;46.526;24.612;2023-05-07T10:09:02;97484.00;;;18.44;50.18
75146;BME280;63641;46.526;24.612;2023-05-07T10:11:30;97488.06;;;18.29;50.71
75146;BME280;63641;46.526;24.612;2023-05-07T10:13:58;97478.94;;;18.17;51.16
75146;BME280;63641;46.526;24.612;2023-05-07T10:16:25;97484.94;;;18.01;51.39
75146;BME280;63641;46.526;24.612;2023-05-07T10:18:53;97489.97;;;17.91;51.82
75146;BME280;63641;46.526;24.612;2023-05-07T10:21:22;97488.66;;;17.88;52.44
75146;BME280;63641;46.526;24.612;2023-05-07T10:23:51;97470.63;;;17.70;52.94
75146;BME280;63641;46.526;24.612;2023-05-07T10:26:22;97493.81;;;17.72;52.91
75146;BME280;63641;46.526;24.612;2023-05-07T10:28:55;97499.28;;;17.63;53.64
75146;BME280;63641;46.526;24.612;2023-05-07T10:33:59;97490.75;;;17.48;53.67
75146;BME280;63641;46.526;24.612;2023-05-07T10:36:27;97491.91;;;17.47;54.01
75146;BME280;63641;46.526;24.612;2023-05-07T10:38:54;97489.16;;;17.47;54.02
75146;BME280;63641;46.526;24.612;2023-05-07T10:41:21;97496.06;;;17.44;53.97
75146;BME280;63641;46.526;24.612;2023-05-07T10:43:48;97487.56;;;17.46;54.31
75146;BME280;63641;46.526;24.612;2023-05-07T10:46:19;97499.47;;;17.50;54.49
75146;BME280;63641;46.526;24.612;2023-05-07T10:51:33;97504.47;;;17.56;55.39
75146;BME280;63641;46.526;24.612;2023-05-07T10:56:40;97521.69;;;17.57;55.71
75146;BME280;63641;46.526;24.612;2023-05-07T11:01:57;97518.13;;;17.56;56.19
75146;BME280;63641;46.526;24.612;2023-05-07T11:04:25;97497.84;;;17.40;56.46
75146;BME280;63641;46.526;24.612;2023-05-07T11:15:09;97493.31;;;17.09;57.52
75146;BME280;63641;46.526;24.612;2023-05-07T11:17:57;97491.38;;;17.01;57.69
75146;BME280;63641;46.526;24.612;2023-05-07T11:20:56;97492.31;;;16.97;57.80
75146;BME280;63641;46.526;24.612;2023-05-07T11:28:30;97503.88;;;16.85;58.98
75146;BME280;63641;46.526;24.612;2023-05-07T11:30:57;97502.91;;;16.81;59.26
75146;BME280;63641;46.526;24.612;2023-05-07T11:33:25;97501.22;;;16.71;59.55
75146;BME280;63641;46.526;24.612;2023-05-07T11:35:55;97502.03;;;16.72;60.35
75146;BME280;63641;46.526;24.612;2023-05-07T11:38:22;97497.84;;;16.65;60.13
75146;BME280;63641;46.526;24.612;2023-05-07T11:40:59;97502.97;;;16.67;59.87
75146;BME280;63641;46.526;24.612;2023-05-07T11:43:27;97492.03;;;16.58;59.90
75146;BME280;63641;46.526;24.612;2023-05-07T11:45:54;97493.63;;;16.59;60.01
75146;BME280;63641;46.526;24.612;2023-05-07T11:48:21;97484.28;;;16.52;60.15
75146;BME280;63641;46.526;24.612;2023-05-07T11:51:02;97485.59;;;16.54;60.28
75146;BME280;63641;46.526;24.612;2023-05-07T11:53:40;97490.53;;;16.52;60.07
75146;BME280;63641;46.526;24.612;2023-05-07T11:56:11;97478.97;;;16.47;60.18
75146;BME280;63641;46.526;24.612;2023-05-07T11:58:39;97484.00;;;16.53;60.46
75146;BME280;63641;46.526;24.612;2023-05-07T12:01:08;97473.06;;;16.53;60.75
75146;BME280;63641;46.526;24.612;2023-05-07T12:03:36;97462.75;;;16.50;60.94
75146;BME280;63641;46.526;24.612;2023-05-07T12:06:07;97462.44;;;16.52;61.31
75146;BME280;63641;46.526;24.612;2023-05-07T12:08:37;97449.72;;;16.47;61.56
75146;BME280;63641;46.526;24.612;2023-05-07T12:11:07;97448.25;;;16.41;61.62
75146;BME280;63641;46.526;24.612;2023-05-07T12:13:35;97445.69;;;16.36;61.69
75146;BME280;63641;46.526;24.612;2023-05-07T12:16:02;97444.69;;;16.32;62.00
75146;BME280;63641;46.526;24.612;2023-05-07T12:18:30;97444.53;;;16.28;62.26
75146;BME280;63641;46.526;24.612;2023-05-07T12:20:58;97444.34;;;16.25;62.42
75146;BME280;63641;46.526;24.612;2023-05-07T12:23:26;97436.09;;;16.16;62.51
75146;BME280;63641;46.526;24.612;2023-05-07T12:25:53;97427.44;;;16.14;62.67
75146;BME280;63641;46.526;24.612;2023-05-07T12:28:19;97433.69;;;16.14;62.74
75146;BME280;63641;46.526;24.612;2023-05-07T12:30:50;97418.91;;;16.07;63.23
75146;BME280;63641;46.526;24.612;2023-05-07T12:33:22;97430.78;;;16.11;62.95
75146;BME280;63641;46.526;24.612;2023-05-07T12:35:50;97414.75;;;16.09;63.01
75146;BME280;63641;46.526;24.612;2023-05-07T12:38:17;97418.56;;;16.08;62.92
75146;BME280;63641;46.526;24.612;2023-05-07T12:40:53;97418.56;;;16.08;63.21
75146;BME280;63641;46.526;24.612;2023-05-07T12:43:25;97418.91;;;16.07;62.99
75146;BME280;63641;46.526;24.612;2023-05-07T12:45:57;97415.38;;;16.06;63.18
75146;BME280;63641;46.526;24.612;2023-05-07T12:48:25;97408.28;;;16.05;63.10
75146;BME280;63641;46.526;24.612;2023-05-07T12:50:59;97409.91;;;16.06;63.17
75146;BME280;63641;46.526;24.612;2023-05-07T12:53:27;97405.25;;;16.07;63.12
75146;BME280;63641;46.526;24.612;2023-05-07T12:55:57;97406.06;;;16.07;62.95
75146;BME280;63641;46.526;24.612;2023-05-07T13:00:54;97406.94;;;16.34;63.27
75146;BME280;63641;46.526;24.612;2023-05-07T13:03:30;97406.19;;;16.51;63.51
75146;BME280;63641;46.526;24.612;2023-05-07T13:06:00;97405.56;;;16.62;63.31
75146;BME280;63641;46.526;24.612;2023-05-07T13:08:31;97381.78;;;16.54;62.79
75146;BME280;63641;46.526;24.612;2023-05-07T13:11:00;97386.28;;;16.67;62.84
75146;BME280;63641;46.526;24.612;2023-05-07T13:13:31;97364.59;;;16.62;62.72
75146;BME280;63641;46.526;24.612;2023-05-07T13:15:58;97395.53;;;17.06;62.90
75146;BME280;63641;46.526;24.612;2023-05-07T13:18:28;97387.19;;;17.20;62.74
75146;BME280;63641;46.526;24.612;2023-05-07T13:21:00;97391.81;;;17.46;62.40